x

Sentry Shoal (46131) Wave Buoy

1:00 - Sun 20th Apr 2014 All times are PDT. -7 hours from GMT.

  • Sig Wave height 1.0ft
  • Peak Period 3s
  • Wind
    2mph, 4mph gusts
  • Sea Temp 47°f
  • Aire Temp 48°f
  • Sea Pressure 1018.9mb
  • Sentry Shoal
  • Sentry Shoal

More Historic Weather Station data

Upgrade to MSW Pro to gain access to the past 30 days of data for over 8000 Wavebouys and Weather Stations around the globe.

Join Pro

Comparision Forecast

View Surf forecast
   
dom 04/20 1:00 1ft 3s 2 4 mph 1018.9mb 47f 48f
12:00 1ft 3s 2 4 mph 1017.6mb 48f 48f
sáb 04/19 11:00 1.3ft 4s 9 11 mph 1016mb 48f 49f
10:00 1.6ft 4s 4 7 mph 1014.6mb 48f 49f
9:00 2.5ft 4s 13 16 mph 1013.1mb 48f 50f
8:00 3.5ft 5s 18 20 mph 1011.7mb 48f 49f
7:00 4.5ft 5s 20 25 mph 1010.6mb 48f 49f
6:00 4.5ft 6s 25 29 mph 1009.9mb 48f 49f
5:00 4.5ft 5s 27 31 mph 1009.1mb 48f 49f
4:00 4.5ft 5s 27 31 mph 1008.4mb 48f 49f
3:00 4ft 5s 25 31 mph 1007.9mb 48f 49f
2:00 3ft 4s 27 31 mph 1006.8mb 48f 49f
1:00 2.5ft 4s 18 22 mph 1006.4mb 48f 49f
12:00 2ft 4s 25 29 mph 1005.7mb 48f 49f
11:00 2ft 4s 20 25 mph 1006.1mb 48f 48f
10:00 2ft 4s 18 22 mph 1005.9mb 48f 48f
9:00 2.5ft 4s 16 20 mph 1006.6mb 48f 48f
8:00 2.5ft 4s 18 22 mph 1007.4mb 48f 47f
7:00 3ft 4s 18 22 mph 1007.8mb 48f 48f
6:00 2.5ft 4s 25 31 mph 1007.8mb 48f 49f
5:00 1.6ft 4s 20 25 mph 1008.4mb 48f 49f
4:00 1ft 3s 13 16 mph 1009.2mb 48f 48f
3:00 1ft 3s 9 11 mph 1009.9mb 48f 49f
2:00 1ft 3s 11
mph
1010.7mb 48f 49f
1:00 1ft 3s 11 13 mph 1011.4mb 48f 49f
12:00 1ft 3s 11 13 mph 1012.4mb 48f 49f
vie 04/18 11:00 1.3ft 4s 13 16 mph 1013.2mb 48f 49f
10:00 2ft 4s 11 13 mph 1014.1mb 48f 49f
9:00 2.5ft 4s 13 16 mph 1014.6mb 48f 49f
8:00 2ft 4s 16 18 mph 1014.8mb 48f 49f
7:00 2.5ft 4s 16 18 mph 1015.5mb 48f 50f
6:00 2ft 4s 18 22 mph 1016.1mb 48f 50f
5:00 1.6ft 3s 16 18 mph 1016.8mb 49f 49f
4:00 0.7ft 2s 11 16 mph 1017.4mb 49f 49f
3:00 0.3ft 3s 11 13 mph 1017.9mb 49f 50f
2:00 0.3ft 2s 9 11 mph 1018.3mb 49f 48f
1:00 0.3ft 3s 9
mph
1018.5mb 49f 47f
12:00 0.3ft 2s 7 9 mph 1018.4mb 49f 47f
11:00 0.3ft 4s 4 7 mph 1018.1mb 49f 46f
10:00 0.3ft 2s  -  2 mph 1017.5mb 49f 46f
9:00 0.3ft 2s 4
mph
1017mb 48f 44f
8:00 0.7ft 3s 4
mph
1016.6mb 48f 44f
7:00 0.7ft 3s 4 7 mph 1015.8mb 48f 44f
6:00 1ft 3s 9 11 mph 1014.9mb 47f 43f
5:00 1.3ft 3s 16 20 mph 1013.7mb 47f 45f
4:00 1.3ft 3s 16 18 mph 1013mb 47f 46f
3:00 1.3ft 3s 18 20 mph 1012.4mb 47f 46f
2:00 1ft 3s 16 20 mph 1011.8mb 48f 46f
1:00 1.3ft 3s 16 18 mph 1011.1mb 48f 46f
12:00 1.3ft 3s 18 22 mph 1009.9mb 48f 47f
jue 04/17 11:00 1ft 2s 18 20 mph 1008.8mb 48f 47f
10:00 0.7ft 2s 16 18 mph 1007.8mb 48f 47f
9:00 0.7ft 4s 11 13 mph 1007.3mb 48f 47f
8:00 1ft 5s 9 11 mph 1006.5mb 47f 46f
7:00 1.3ft 3s 11 13 mph 1006.4mb 48f 46f
6:00 2ft 3s 18 22 mph 1006.1mb 48f 45f
5:00 1.6ft 4s 20 22 mph 1005.9mb 48f 46f
4:00 3ft 5s 11 13 mph 1005.7mb 48f 47f
3:00 4ft 5s 18 22 mph 1005mb 48f 49f
2:00 4ft 5s 20 22 mph 1005.1mb 48f 50f
1:00 4.5ft 5s 25 29 mph 1005.1mb 48f 50f
12:00 3.5ft 4s 25 29 mph 1005.3mb 48f 50f
11:00 3.5ft 4s 25 27 mph 1005.5mb 48f 49f
10:00 3ft 4s 22 27 mph 1005.7mb 48f 49f
9:00 2.5ft 4s 22 27 mph 1006.1mb 48f 49f
8:00 2.5ft 4s 18 22 mph 1006.5mb 48f 49f
7:00 3ft 4s 13 18 mph 1006.8mb 48f 49f
6:00 2.5ft 4s 16 20 mph 1006.9mb 48f 49f
5:00 3ft 4s 18 20 mph 1007.2mb 48f 49f
4:00 3ft 5s 16 18 mph 1007.4mb 48f 49f
3:00 2.5ft 4s 16 20 mph 1007.9mb 48f 49f
2:00 2.5ft 4s 22 31 mph 1008.1mb 48f 49f
1:00 2ft 4s 16 18 mph 1009.1mb 48f 49f
12:00 2.5ft 4s 13 18 mph 1009.7mb 48f 49f
mié 04/16 11:00 2.5ft 4s 18 22 mph 1010mb 48f 49f
10:00 2.5ft 4s 18 22 mph 1010.7mb 48f 49f
9:00 3.5ft 5s 18 20 mph 1011.1mb 48f 50f
8:00 4ft 5s 20 25 mph 1011mb 48f 50f
7:00 4ft 5s 20 22 mph 1011.7mb 48f 50f
6:00 4ft 5s 18 22 mph 1012.1mb 48f 50f
5:00 4ft 5s 22 27 mph 1012.2mb 49f 50f
4:00 3.5ft 5s 18 22 mph 1012.8mb 48f 50f
3:00 3ft 4s 22 25 mph 1013.2mb 49f 49f
2:00 3ft 4s 22 27 mph 1013.7mb 49f 49f
1:00 2.5ft 4s 20 25 mph 1014.3mb 49f 49f
12:00 2.5ft 5s 18 22 mph 1014.4mb 49f 49f
11:00 2.5ft 4s 20 25 mph 1014.3mb 49f 48f
10:00 2.5ft 4s 20 22 mph 1014.3mb 49f 48f